Plainville, Connecticut
Current Conditions -  °F | °C
As of 10:53 PM on Wednesday 28 Jan 2015 (Local Time) from KMMK Reporting Station
Clear Clear  
Wind Chill:   Ceiling: Unl
Heat Index: 20°   Visibility: 10mi
Dew Point:   Wind: 9mph
Humidity: 44%   Direction: 330°NNW
Pressure: 30.25"   Gusts: NA
Location:  41.67°N, 72.86°W
Report Text: KMMK 290353Z AUTO 33008KT 10SM CLR M07/M17 A3025 RMK AO2 SLP245 T10671172 TSNO
Loading
Personal Weather Stations






























Interactive Weather Map New forecast layout! Learn more

10-Day Weather Forecast

Advertisements
Track Severe Weather on mobile